mostra aiuto
Accedi o registrati
gp del qatar

MXGP. Bobryshev e Herlings si aggiudicano le qualifiche in Qatar

- Il russo fa il vuoto nella MXGP davanti a Gajser, l’olandese conferma le sue aspirazioni e il suo potenziale. Cairoli 4°
MXGP. Bobryshev e Herlings si aggiudicano le qualifiche in Qatar

La serie del Motocross iridato ha aperto i battenti con la prova di forza di Evgeny Bobryshev che dopo aver ottenuto il secondo giro più veloce nelle prove iridate ha ribadito il suo stato di forma vincendo con ampio margine la qualifica MXGP. L’ufficiale HRC ha preceduto il sorprendente Tim Gajser, già distintosi col 4° posto nei tempi cronometrati, e Romain Febvre rivenuto dalla 6ª piazza e autore del miglior tempo sul giro.


Quarta posizione per Antonio Cairoli che ha preso il primo GP della stagione con la massima prudenza come ha sottolineato col 16° posto spiccato nelle crono. In gara si è dato più da fare anche per capire a che punto è il suo potenziale, e ha navigato per tutto il tempo attorno alla 4ª posizione che ha poi mantenuto per tutta la seconda parte di gara. Niente da fare invece per Clement Desalle, presentatosi in Qatar con una placca al braccio sinistro per la caduta di due settimane prima. E' riuscito a fare solo due giri prima di prendere la via dei box; 14° Alex Lupini e solo 17° Ben Townley.
 


MX2

Jeffrey Herlings ha invece aperto alla grande la MX2 assicurandosi la vittoria sul francese Dylan Ferrandis che nelle crono gli aveva soffiato il miglior tempo. 3° posto per Pauls Jonass, mentre Samuele Bernardini ha chiuso 12°.

Nelle prove cronometrate WMX subito lotta tra le due contendenti Livia Lancelot e Kiara Fontanesi; il primo scontro è terminato in favore della francese che ha staccato la parmense di quasi un secondo e mezzo.
 

Classifiche

MXGP - Qualifying Race - Classification
Pos Nr Rider Nat. Fed. Bike Time laps Diff. First Diff. Prev. Bestlaptime in lap Speed
1 777 Bobryshev, Evgeny RUS MUL Honda 24:54.670 13 0:00.000 0:00.000 1:46.561 7 53.8
2 243 Gajser, Tim SLO AMZS Honda 24:56.484 13 0:01.814 0:01.814 1:46.409 10 53.9
3 461 Febvre, Romain FRA FFM Yamaha 25:01.404 13 0:06.734 0:04.920 1:45.805 8 54.2
4 222 Cairoli, Antonio ITA FMI KTM 25:11.312 13 0:16.642 0:09.908 1:47.336 6 53.4
5 259 Coldenhoff, Glenn NED KNMV KTM 25:14.248 13 0:19.578 0:02.936 1:47.630 11 53.3
6 21 Paulin, Gautier FRA MCM Honda 25:19.389 13 0:24.719 0:05.141 1:48.213 12 53
7 12 Nagl, Maximilian GER DMSB Husqvarna 25:21.655 13 0:26.985 0:02.266 1:48.239 6 53
8 24 Simpson, Shaun GBR ACU KTM 25:22.753 13 0:28.083 0:01.098 1:48.644 10 52.8
9 100 Searle, Tommy GBR ACU Kawasaki 25:23.856 13 0:29.186 0:01.103 1:47.733 8 53.2
10 22 Strijbos, Kevin BEL FMB Suzuki 25:24.999 13 0:30.329 0:01.143 1:47.842 11 53.2
11 89 Van Horebeek, Jeremy BEL FMB Yamaha 25:34.174 13 0:39.504 0:09.175 1:48.101 12 53.1
12 92 Guillod, Valentin SUI FMS Yamaha 25:35.256 13 0:40.586 0:01.082 1:48.333 10 53
13 17 Butron, Jose ESP RFME KTM 25:38.089 13 0:43.419 0:02.833 1:49.054 3 52.6
14 77 Lupino, Alessandro ITA FMI Honda 25:53.866 13 0:59.196 0:15.777 1:49.936 6 52.2
15 7 Leok, Tanel EST EMF Husqvarna 25:54.835 13 1:00.165 0:00.969 1:50.677 6 51.8
16 32 Potisek, Milko FRA FFM Yamaha 26:03.522 13 1:08.852 0:08.687 1:50.630 9 51.9
17 8 Townley, Ben NZL MNZ Suzuki 26:19.685 13 1:25.015 0:16.163 1:48.897 5 52.7
18 23 Charlier, Christophe FRA FFM Husqvarna 26:25.766 13 1:31.096 0:06.081 1:49.456 5 52.4
19 31 Snow, Alex GBR ACU Yamaha 26:29.495 13 1:34.825 0:03.729 1:52.675 4 50.9
20 400 Yamamoto, Kei JPN FMI Honda 26:49.801 13 1:55.131 0:20.306 1:52.748 12 50.9
21 25 Desalle, Clement BEL FMB Kawasaki 5:46.112 2 11 laps 11 laps 1:58.598 1 48.4

 

MX2 - Qualifying Race - Classification
Pos Nr Rider Nat. Fed. Bike Time laps Diff. First Diff. Prev. Bestlaptime in lap Speed
1 84 Herlings, Jeffrey NED KNMV KTM 24:51.763 13 0:00.000 0:00.000 1:46.997 8 53.6
2 4 Ferrandis, Dylan FRA FFM Kawasaki 24:53.546 13 0:01.783 0:01.783 1:46.441 11 53.9
3 41 Jonass, Pauls LAT LAMSF KTM 25:26.900 13 0:35.137 0:33.354 1:48.760 5 52.7
4 91 Seewer, Jeremy SUI FMS Suzuki 25:29.999 13 0:38.236 0:03.099 1:49.169 6 52.5
5 6 Paturel, Benoit FRA FFM Yamaha 25:31.073 13 0:39.310 0:01.074 1:49.202 6 52.5
6 152 Petrov, Petar BUL QMMF Kawasaki 25:33.970 13 0:42.207 0:02.897 1:48.850 9 52.7
7 59 Tonkov, Aleksandr RUS KNMV Yamaha 25:41.527 13 0:49.764 0:07.557 1:49.620 9 52.3
8 18 Brylyakov, Vsevolod RUS MFR Kawasaki 25:43.574 13 0:51.811 0:02.047 1:49.744 6 52.3
9 99 Anstie, Max GBR ACU Husqvarna 25:45.879 13 0:54.116 0:02.305 1:49.331 8 52.5
10 46 Pootjes, Davy NED KNMV KTM 25:53.999 13 1:02.236 0:08.120 1:49.910 9 52.2
11 251 Getteman, Jens BEL FMB KTM 26:00.299 13 1:08.536 0:06.300 1:49.828 6 52.2
12 321 Bernardini, Samuele ITA FMI TM 26:04.399 13 1:12.636 0:04.100 1:51.111 5 51.6
13 172 Van doninck, Brent BEL FMB Yamaha 26:06.941 13 1:15.178 0:02.542 1:48.337 8 53
14 919 Watson, Ben GBR ACU Husqvarna 26:10.143 13 1:18.380 0:03.202 1:51.037 7 51.7
15 189 Bogers, Brian NED KNMV KTM 26:24.542 13 1:32.779 0:14.399 1:51.714 9 51.3
16 29 Jacobi, Henry GER DMSB Honda 26:25.521 13 1:33.758 0:00.979 1:50.941 13 51.7
17 132 Kutsar, Karel EST EMF KTM 26:27.410 13 1:35.647 0:01.889 1:51.671 9 51.4
18 101 Zaragoza, Jorge ESP RFME Honda 26:29.698 13 1:37.935 0:02.288 1:50.808 9 51.8
19 71 Graulus, Damon BEL FMB Honda 26:31.061 13 1:39.298 0:01.363 1:51.574 6 51.4
20 161 Östlund, Alvin SWE SVEMO Yamaha 26:38.336 13 1:46.573 0:07.275 1:52.192 9 51.1
21 97 Ivanov, Maykal Grisha BUL QMMF KTM 26:38.669 13 1:46.906 0:00.333 1:52.047 6 51.2
22 88 van der Vlist, Freek NED KNMV Kawasaki 25:05.129 12 1 lap 1 lap 1:53.179 4 50.7
23 10 Vlaanderen, Calvin NED KNMV KTM 8:10.625 3 10 laps 9 laps 1:59.227 2 48.1
24 64 Covington, Thomas USA AMA Husqvarna 3:26.823 1 12 laps 2 laps 1:52.976 1 50.8
25 174 Smith, Alfie GBR ACU Yamaha 0:00.000 0 13 laps 1 lap 0:00.000   0
  • wake, Padova (PD)

    Finalmente si riparte! (sempre forza Tony)

    Un pensiero:
    Bobrishev vince la qualifica della 450 - tempo totale 24:54 - best lap: 1:46:561
    Herlings vince la qualifica delle 250 - tempo totale 24:51; Ferrandis secondo alla quali dell 250 - best lap 1:46:441

    Va bene che le condizioni della pista variano continuamente(le piccole corrono prima) ma lo sviluppo dei trattorini ufficiali è impressionante!
  • walter.sciutto, Nizza Monferrato (AT)

    .

    Quest'anno lo squadrone Honda è agguerrito e alla distanza verrà fuori un bel Gajser, consistente e concreto più di Paulin. Speriamo che Tony riesca a contenere i danni e che i vari piloti di punta si distribuiscano i punti in palio senza che nessuno "prenda il volo" distanziandosi troppo.Io confido in Cairoli, se ritrova il suo stato di forma e non "litiga" troppo col 450 non ha paura di nessuno. In bocca al lupo a tutti e speriamo in un bellissimo campionato.
Inserisci il tuo commento